createdAt,value
2023-08-08T00:02:15.289Z,78.45
2023-08-08T00:07:14.481Z,78.08
2023-08-08T00:12:14.713Z,77.93
2023-08-08T00:17:14.716Z,77.47
2023-08-08T00:22:14.703Z,76.89
2023-08-08T00:27:14.279Z,76.48
2023-08-08T00:32:14.766Z,75.65
2023-08-08T00:37:15.409Z,75.35
2023-08-08T00:42:15.090Z,74.86
2023-08-08T00:47:15.214Z,74.19
2023-08-08T00:52:14.782Z,73.99
2023-08-08T00:57:14.962Z,73.65
2023-08-08T01:02:15.509Z,73.22
2023-08-08T01:07:25.370Z,72.87
2023-08-08T01:12:26.334Z,72.59
2023-08-08T01:17:29.676Z,72.74
2023-08-08T01:22:38.552Z,72.99
2023-08-08T01:27:38.204Z,73.24
2023-08-08T01:32:37.089Z,73.36
2023-08-08T01:37:47.274Z,73.59
2023-08-08T01:42:49.545Z,73.70
2023-08-08T01:47:56.059Z,74.20
2023-08-08T01:52:55.599Z,74.14
2023-08-08T01:57:54.805Z,74.12
2023-08-08T02:02:54.892Z,73.91
2023-08-08T02:07:54.463Z,73.93
2023-08-08T02:12:53.898Z,74.19
2023-08-08T02:17:54.706Z,74.43
2023-08-08T02:22:54.548Z,74.52
2023-08-08T02:27:53.612Z,74.44
2023-08-08T02:32:52.486Z,74.41
2023-08-08T02:37:51.956Z,74.33
2023-08-08T02:42:51.396Z,74.43
2023-08-08T02:47:50.880Z,74.33
2023-08-08T02:52:51.410Z,74.23
2023-08-08T02:57:50.994Z,74.16
2023-08-08T03:02:50.631Z,73.92
2023-08-08T03:07:51.005Z,73.99
2023-08-08T03:12:51.565Z,73.90
2023-08-08T03:17:52.341Z,73.97
2023-08-08T03:22:54.070Z,73.74
2023-08-08T03:27:53.749Z,73.58
2023-08-08T03:32:53.814Z,73.63
2023-08-08T03:37:54.026Z,73.66
2023-08-08T03:42:53.723Z,73.92
2023-08-08T03:47:53.061Z,73.99
2023-08-08T03:52:54.226Z,73.93
2023-08-08T03:57:53.759Z,73.96
2023-08-08T04:02:53.399Z,73.98
2023-08-08T04:07:53.586Z,74.07
2023-08-08T04:12:52.781Z,74.07
2023-08-08T04:17:52.042Z,74.10
2023-08-08T04:22:51.496Z,74.06
2023-08-08T04:27:51.020Z,74.04
2023-08-08T04:32:50.872Z,73.96
2023-08-08T04:37:50.925Z,73.79
2023-08-08T04:42:50.863Z,73.66
2023-08-08T04:47:50.362Z,73.39
2023-08-08T04:52:50.815Z,72.82
2023-08-08T04:57:50.646Z,72.30
2023-08-08T05:02:49.996Z,72.00
2023-08-08T05:07:49.250Z,71.86
2023-08-08T05:12:48.565Z,71.29
2023-08-08T05:17:48.483Z,70.87
2023-08-08T05:22:48.402Z,70.54
2023-08-08T05:27:48.192Z,70.28
2023-08-08T05:32:47.723Z,69.76
2023-08-08T05:37:47.862Z,69.54
2023-08-08T05:42:47.762Z,69.13
2023-08-08T05:47:47.409Z,68.81
2023-08-08T05:52:46.181Z,68.66
2023-08-08T05:57:46.170Z,68.07
2023-08-08T06:02:45.982Z,67.91
2023-08-08T06:07:45.990Z,67.85
2023-08-08T06:12:45.354Z,67.43
2023-08-08T06:17:45.147Z,67.47
2023-08-08T06:22:45.046Z,66.95
2023-08-08T06:27:44.801Z,67.04
2023-08-08T06:32:44.155Z,66.66
2023-08-08T06:37:43.314Z,65.98
2023-08-08T06:42:42.985Z,66.38
2023-08-08T06:47:42.535Z,65.44
2023-08-08T06:52:41.893Z,64.24
2023-08-08T06:57:41.390Z,63.86
2023-08-08T07:02:40.488Z,63.46
2023-08-08T07:07:40.371Z,63.54
2023-08-08T07:12:40.144Z,62.92
2023-08-08T07:17:39.364Z,62.26
2023-08-08T07:22:40.701Z,62.44
2023-08-08T07:27:41.131Z,61.76
2023-08-08T07:32:41.215Z,60.59
2023-08-08T07:37:40.568Z,60.58
2023-08-08T07:42:40.302Z,60.56
2023-08-08T07:47:40.009Z,60.11
2023-08-08T07:52:40.660Z,60.27
2023-08-08T07:57:40.613Z,60.06
2023-08-08T08:02:40.124Z,59.75
2023-08-08T08:07:40.977Z,59.21
2023-08-08T08:12:43.064Z,59.23
2023-08-08T08:17:43.533Z,58.61
2023-08-08T08:22:43.093Z,58.44
2023-08-08T08:27:43.132Z,58.69
2023-08-08T08:32:43.910Z,57.61
2023-08-08T08:37:43.446Z,57.11
2023-08-08T08:42:44.804Z,56.66
2023-08-08T08:47:51.670Z,55.60
2023-08-08T08:52:51.807Z,56.14
2023-08-08T08:57:52.815Z,56.29
2023-08-08T09:02:52.975Z,55.63
2023-08-08T09:07:53.506Z,54.17
2023-08-08T09:12:53.669Z,53.81
2023-08-08T09:17:53.189Z,53.57
2023-08-08T09:22:54.151Z,54.03
2023-08-08T09:27:55.506Z,54.39
2023-08-08T09:32:54.428Z,52.59
2023-08-08T09:37:55.070Z,52.65
2023-08-08T09:42:59.658Z,50.88
2023-08-08T09:48:01.726Z,50.53
2023-08-08T09:58:01.591Z,49.99
2023-08-08T10:03:02.222Z,50.29
2023-08-08T10:08:03.180Z,50.24
2023-08-08T10:13:03.450Z,49.17
2023-08-08T10:18:04.856Z,47.27
2023-08-08T10:23:08.466Z,46.62
2023-08-08T10:28:26.072Z,46.27
2023-08-08T10:33:29.095Z,46.18
2023-08-08T10:38:29.649Z,45.70
2023-08-08T10:43:34.142Z,45.55
2023-08-08T10:48:34.420Z,45.66
2023-08-08T10:53:34.047Z,44.40
2023-08-08T10:58:44.016Z,43.81
2023-08-08T11:03:45.435Z,41.56
2023-08-08T11:08:45.670Z,41.36
2023-08-08T11:13:45.898Z,41.49
2023-08-08T11:18:47.939Z,41.30
2023-08-08T11:23:52.165Z,40.33
2023-08-08T11:28:58.029Z,39.16
2023-08-08T11:33:59.397Z,40.59
2023-08-08T11:39:02.715Z,39.74
2023-08-08T11:44:03.510Z,40.49
2023-08-08T11:49:09.673Z,40.41
2023-08-08T11:54:11.141Z,40.21
2023-08-08T11:59:13.605Z,39.99
2023-08-08T12:04:16.799Z,40.17
2023-08-08T12:09:17.666Z,40.58
2023-08-08T12:14:17.275Z,40.11
2023-08-08T12:19:22.305Z,39.04
2023-08-08T12:24:21.939Z,37.85
2023-08-08T12:29:21.493Z,37.67
2023-08-08T12:34:21.277Z,37.89
2023-08-08T12:39:20.939Z,38.43
2023-08-08T12:44:20.346Z,38.61
2023-08-08T12:49:19.650Z,38.40
2023-08-08T12:54:18.788Z,38.59
2023-08-08T12:59:17.853Z,37.75
2023-08-08T13:04:20.007Z,37.88
2023-08-08T13:09:19.948Z,37.07
2023-08-08T13:14:19.725Z,36.10
2023-08-08T13:19:21.554Z,36.78
2023-08-08T13:24:22.540Z,36.91
2023-08-08T13:29:21.835Z,37.17
2023-08-08T13:34:20.453Z,37.55
2023-08-08T13:39:20.212Z,38.01
2023-08-08T13:44:19.480Z,37.37
2023-08-08T13:49:19.262Z,37.24
2023-08-08T13:54:19.118Z,37.16
2023-08-08T13:59:18.453Z,36.78
2023-08-08T14:04:17.434Z,37.48
2023-08-08T14:09:19.560Z,38.03
2023-08-08T14:14:18.808Z,39.18
2023-08-08T14:19:18.772Z,39.76
2023-08-08T14:24:18.150Z,39.32
2023-08-08T14:29:17.322Z,38.78
2023-08-08T14:34:17.500Z,38.69
2023-08-08T14:39:16.478Z,38.09
2023-08-08T14:44:16.548Z,37.78
2023-08-08T14:49:16.449Z,38.80
2023-08-08T14:54:15.938Z,38.86
2023-08-08T14:59:15.657Z,37.73
2023-08-08T15:04:15.475Z,33.31
2023-08-08T15:09:15.853Z,32.38
2023-08-08T15:14:15.785Z,31.41
2023-08-08T15:19:14.791Z,29.24
2023-08-08T15:24:14.407Z,28.66
2023-08-08T15:29:14.334Z,30.72
2023-08-08T15:34:14.158Z,30.71
2023-08-08T15:39:13.489Z,31.73
2023-08-08T15:44:13.866Z,32.47
2023-08-08T15:49:14.510Z,33.42
2023-08-08T15:54:14.172Z,34.10
2023-08-08T15:59:13.740Z,33.46
2023-08-08T16:04:16.184Z,34.34
2023-08-08T16:09:15.843Z,34.75
2023-08-08T16:14:16.158Z,34.29
2023-08-08T16:19:15.840Z,33.60
2023-08-08T16:24:16.013Z,34.06
2023-08-08T16:29:16.142Z,34.55
2023-08-08T16:34:15.626Z,35.43
2023-08-08T16:39:18.698Z,36.31
2023-08-08T16:44:19.764Z,37.27
2023-08-08T16:49:19.640Z,37.96
2023-08-08T16:54:19.703Z,38.87
2023-08-08T16:59:19.762Z,39.54
2023-08-08T17:04:19.808Z,40.70
2023-08-08T17:09:20.004Z,41.68
2023-08-08T17:14:19.830Z,42.28
2023-08-08T17:19:20.184Z,40.55
2023-08-08T17:24:22.844Z,38.53
2023-08-08T17:29:25.353Z,37.51
2023-08-08T17:34:25.296Z,37.87
2023-08-08T17:39:25.654Z,38.74
2023-08-08T17:44:25.426Z,40.03
2023-08-08T17:49:24.994Z,41.22
2023-08-08T17:54:24.504Z,41.71
2023-08-08T17:59:27.705Z,42.42
2023-08-08T18:04:28.028Z,43.19
2023-08-08T18:09:30.666Z,43.65
2023-08-08T18:14:31.292Z,43.85
2023-08-08T18:19:32.616Z,43.97
2023-08-08T18:24:33.319Z,44.26
2023-08-08T18:29:33.006Z,44.72
2023-08-08T18:34:32.321Z,44.99
2023-08-08T18:39:32.176Z,45.54
2023-08-08T18:44:32.697Z,45.85
2023-08-08T18:49:32.433Z,46.28
2023-08-08T18:54:32.142Z,46.65
2023-08-08T18:59:32.188Z,46.95
2023-08-08T19:04:31.860Z,47.03
2023-08-08T19:09:31.295Z,47.12
2023-08-08T19:14:30.473Z,47.88
2023-08-08T19:19:30.024Z,48.05
2023-08-08T19:24:29.975Z,48.14
2023-08-08T19:29:30.289Z,48.07
2023-08-08T19:34:30.540Z,48.42
2023-08-08T19:39:30.495Z,49.05
2023-08-08T19:44:29.957Z,49.38
2023-08-08T19:49:31.675Z,49.65
2023-08-08T19:54:31.166Z,50.06
2023-08-08T19:59:30.769Z,50.85
2023-08-08T20:04:30.493Z,51.00
2023-08-08T20:09:30.761Z,51.33
2023-08-08T20:14:32.240Z,51.97
2023-08-08T20:19:32.087Z,52.23
2023-08-08T20:24:31.649Z,52.75
2023-08-08T20:29:31.483Z,53.32
2023-08-08T20:34:31.804Z,53.47
2023-08-08T20:39:31.807Z,53.38
2023-08-08T20:44:31.606Z,54.53
2023-08-08T20:49:30.745Z,54.73
2023-08-08T20:54:31.362Z,55.50
2023-08-08T20:59:32.638Z,55.25
2023-08-08T21:04:32.828Z,55.69
2023-08-08T21:09:32.831Z,55.29
2023-08-08T21:14:32.257Z,56.24
2023-08-08T21:19:32.984Z,56.07
2023-08-08T21:24:33.997Z,56.40
2023-08-08T21:29:34.250Z,56.10
2023-08-08T21:34:33.802Z,57.05
2023-08-08T21:39:33.413Z,57.00
2023-08-08T21:44:32.396Z,57.72
2023-08-08T21:49:31.859Z,58.66
2023-08-08T21:54:30.774Z,58.44
2023-08-08T21:59:30.109Z,58.47
2023-08-08T22:04:29.293Z,58.47
2023-08-08T22:09:29.063Z,58.71
2023-08-08T22:14:28.527Z,58.79
2023-08-08T22:19:28.797Z,58.86
2023-08-08T22:24:29.290Z,58.83
2023-08-08T22:29:28.551Z,59.03
2023-08-08T22:34:28.227Z,59.19
2023-08-08T22:39:27.747Z,59.49
2023-08-08T22:44:27.388Z,60.03
2023-08-08T22:49:26.707Z,60.22
2023-08-08T22:54:26.123Z,61.04
2023-08-08T22:59:24.801Z,61.71
2023-08-08T23:04:24.974Z,61.31
2023-08-08T23:09:24.358Z,61.99
2023-08-08T23:14:24.561Z,62.11
2023-08-08T23:19:24.589Z,61.99
2023-08-08T23:24:24.110Z,62.85
2023-08-08T23:29:24.208Z,62.01
2023-08-08T23:34:25.795Z,63.68
2023-08-08T23:39:25.556Z,64.40
2023-08-08T23:44:24.578Z,64.49
2023-08-08T23:49:23.888Z,65.13
2023-08-08T23:54:23.197Z,65.22
2023-08-08T23:59:22.413Z,66.13
